Главная страница
METAR-TAF:

METAR-TAF

Аэропорты :

Свальбард

Лонгйир, Норвегия

широта: 78-15N, долгота: 015-28E, высота над уровнем моря: 2 м

Текущие метеонаблюдения

Эта сводка был подготовлена 12 минут назад, в 11:50 UTC
Ветер 6 Узел от западный
Температура 6°C
Влажность 81%
Давление 1009 hPa
Видимость 10 км и более
небольшая облачность на высоте 1500 фута
Рассеянная облачность на высоте 2500 фута

METAR: ENSB 211150Z 27006KT 9999 FEW015 BKN025 06/03 Q1009 NOSIG RMK WIND 1400FT 28005KT

Время: 14:02 (12:02 UTC)

Прогноз

Прогноз действительный с 21-го 12 UTC до 22-го 12 UTC
Ветер 8 Узел от западный
Видимость 10 км и более
небольшая облачность на высоте 1500 фута
Рассеянная облачность на высоте 2000 фута
Вероятность 30%
С 22-го 00 UTC до 22-го 06 UTC
Видимость: 0800 м
на высоте 200 фута
туман

TAF: ENSB 2112/2212 27008KT 9999 FEW015 BKN020 PROB30 2200/2206 0800 FG VV002

Метеонаблюдения и прогнозы для более 4000 аэропортов (сводки METAR и TAF).

Имеющиеся станции представлены на карте желтыми и красными точками.

Чтобы увидеть название станции, наведите на нее мышь.

Затем щелкните, чтобы увидеть метеонаблюдения и метеопрогнозы.

Управление картой: чтобы увеличить масштаб, щелкните зеленые кнопки с черным крестиком; чтобы уменьшить масштаб, щелкните зеленую кнопку с тире; для просмотра соседних карт щелкайте зеленые стрелки.


METAR-TAF: